createdAt,value
2018-03-22T00:00:08.139Z,30.2
2018-03-22T00:00:57.528Z,30.2
2018-03-22T00:01:48.148Z,30.1
2018-03-22T00:02:38.843Z,30.1
2018-03-22T00:03:28.505Z,30
2018-03-22T00:04:16.721Z,29.9
2018-03-22T00:05:08.240Z,29.8
2018-03-22T00:05:57.425Z,29.7
2018-03-22T00:06:48.916Z,29.6
2018-03-22T00:07:37.296Z,29.4
2018-03-22T00:08:28.368Z,29.3
2018-03-22T00:09:18.631Z,29.1
2018-03-22T00:10:07.279Z,29
2018-03-22T00:10:58.401Z,28.9
2018-03-22T00:11:49.193Z,28.6
2018-03-22T00:12:37.675Z,28.9
2018-03-22T00:13:28.280Z,28.7
2018-03-22T00:14:17.745Z,28.6
2018-03-22T00:15:07.616Z,28.6
2018-03-22T00:15:57.976Z,28.6
2018-03-22T00:16:49.282Z,28.6
2018-03-22T00:17:39.203Z,28.8
2018-03-22T00:18:29.443Z,28.9
2018-03-22T00:19:18.677Z,29
2018-03-22T00:20:09.058Z,29.1
2018-03-22T00:20:59.423Z,29.3
2018-03-22T00:21:48.695Z,29.3
2018-03-22T00:22:39.761Z,29.4
2018-03-22T00:23:30.074Z,29.6
2018-03-22T00:24:19.478Z,29.6
2018-03-22T00:25:09.326Z,29.7
2018-03-22T00:25:59.158Z,29.7
2018-03-22T00:26:50.132Z,29.7
2018-03-22T00:27:40.670Z,29.6
2018-03-22T00:28:30.867Z,29.4
2018-03-22T00:29:19.939Z,29.2
2018-03-22T00:30:09.668Z,29
2018-03-22T00:30:58.736Z,28.9
2018-03-22T00:31:49.890Z,29.2
2018-03-22T00:32:39.995Z,29.3
2018-03-22T00:33:29.982Z,29
2018-03-22T00:34:19.520Z,28.8
2018-03-22T00:35:09.324Z,28.6
2018-03-22T00:35:59.801Z,28.3
2018-03-22T00:36:50.811Z,28.4
2018-03-22T00:37:39.394Z,28.6
2018-03-22T00:38:30.182Z,28.8
2018-03-22T00:39:20.884Z,28.9
2018-03-22T00:40:10.969Z,29.1
2018-03-22T00:41:00.412Z,29.2
2018-03-22T00:41:51.161Z,29.3
2018-03-22T00:42:41.376Z,29.4
2018-03-22T00:43:30.876Z,29.5
2018-03-22T00:44:20.420Z,29.6
2018-03-22T00:45:11.523Z,29.7
2018-03-22T00:45:59.972Z,29.8
2018-03-22T00:46:51.198Z,29.8
2018-03-22T00:47:40.774Z,29.9
2018-03-22T00:48:30.177Z,29.9
2018-03-22T00:49:21.184Z,30
2018-03-22T00:50:11.826Z,30.1
2018-03-22T00:51:01.112Z,30.1
2018-03-22T00:51:51.081Z,30.1
2018-03-22T00:52:41.253Z,29.9
2018-03-22T00:53:31.613Z,29.9
2018-03-22T00:54:21.298Z,29.8
2018-03-22T00:55:11.067Z,29.7
2018-03-22T00:56:01.649Z,29.6
2018-03-22T00:56:51.343Z,29.4
2018-03-22T00:57:42.184Z,29.3
2018-03-22T00:58:31.536Z,29.2
2018-03-22T00:59:20.718Z,29.1
2018-03-22T01:00:12.863Z,28.9
2018-03-22T01:01:02.348Z,28.8
2018-03-22T01:01:51.947Z,28.9
2018-03-22T01:02:42.033Z,28.7
2018-03-22T01:03:31.163Z,28.6
2018-03-22T01:04:22.738Z,28.5
2018-03-22T01:05:12.480Z,28.5
2018-03-22T01:06:02.143Z,28.5
2018-03-22T01:06:53.276Z,28.6
2018-03-22T01:07:42.642Z,28.8
2018-03-22T01:08:31.248Z,28.9
2018-03-22T01:09:23.683Z,29.1
2018-03-22T01:10:13.070Z,29.2
2018-03-22T01:11:02.320Z,29.3
2018-03-22T01:11:53.540Z,29.4
2018-03-22T01:12:42.429Z,29.4
2018-03-22T01:13:32.565Z,29.5
2018-03-22T01:14:22.653Z,29.6
2018-03-22T01:15:13.307Z,29.7
2018-03-22T01:16:03.454Z,29.8
2018-03-22T01:16:53.212Z,29.8
2018-03-22T01:17:44.389Z,29.9
2018-03-22T01:18:32.549Z,29.9
2018-03-22T01:19:24.114Z,30
2018-03-22T01:20:13.133Z,30.1
2018-03-22T01:21:02.894Z,30.1
2018-03-22T01:21:52.957Z,30.1
2018-03-22T01:22:43.477Z,30.1
2018-03-22T01:23:32.402Z,30.1
2018-03-22T01:24:23.812Z,30
2018-03-22T01:25:13.080Z,29.9
2018-03-22T01:26:03.669Z,29.8
2018-03-22T01:26:54.283Z,29.7
2018-03-22T01:27:44.166Z,29.6
2018-03-22T01:28:33.022Z,29.4
2018-03-22T01:29:22.391Z,29.3
2018-03-22T01:30:13.634Z,29.1
2018-03-22T01:31:03.887Z,29.1
2018-03-22T01:31:53.810Z,28.9
2018-03-22T01:32:44.449Z,28.7
2018-03-22T01:33:34.131Z,28.9
2018-03-22T01:34:24.552Z,28.6
2018-03-22T01:35:14.828Z,28.6
2018-03-22T01:36:03.936Z,28.5
2018-03-22T01:36:55.513Z,28.4
2018-03-22T01:37:45.172Z,28.5
2018-03-22T01:38:33.717Z,28.6
2018-03-22T01:39:25.162Z,28.8
2018-03-22T01:40:14.659Z,28.9
2018-03-22T01:41:04.789Z,29.1
2018-03-22T01:41:54.709Z,29.2
2018-03-22T01:42:44.258Z,29.3
2018-03-22T01:43:35.146Z,29.4
2018-03-22T01:44:24.992Z,29.4
2018-03-22T01:45:14.167Z,29.5
2018-03-22T01:46:05.621Z,29.6
2018-03-22T01:46:55.196Z,29.7
2018-03-22T01:47:45.080Z,29.8
2018-03-22T01:48:35.216Z,29.8
2018-03-22T01:49:25.567Z,29.8
2018-03-22T01:50:15.801Z,29.9
2018-03-22T01:51:05.224Z,29.9
2018-03-22T01:51:55.635Z,30
2018-03-22T01:52:45.008Z,30.1
2018-03-22T01:53:34.886Z,30.1
2018-03-22T01:54:25.888Z,30.1
2018-03-22T01:55:14.798Z,30.1
2018-03-22T01:56:05.581Z,30.1
2018-03-22T01:56:55.925Z,30
2018-03-22T01:57:45.863Z,29.9
2018-03-22T01:58:36.696Z,29.9
2018-03-22T01:59:25.804Z,29.8
2018-03-22T02:00:16.575Z,29.6
2018-03-22T02:01:06.543Z,29.5
2018-03-22T02:01:55.938Z,29.4
2018-03-22T02:02:46.630Z,29.3
2018-03-22T02:03:36.932Z,29.1
2018-03-22T02:04:25.678Z,29
2018-03-22T02:05:16.367Z,28.8
2018-03-22T02:06:05.779Z,28.7
2018-03-22T02:06:57.246Z,28.8
2018-03-22T02:07:45.921Z,28.6
2018-03-22T02:08:35.412Z,28.5
2018-03-22T02:09:27.657Z,28.5
2018-03-22T02:10:16.764Z,28.4
2018-03-22T02:11:07.167Z,28.5
2018-03-22T02:11:58.121Z,28.6
2018-03-22T02:12:46.117Z,28.8
2018-03-22T02:13:36.131Z,28.9
2018-03-22T02:14:27.140Z,29.1
2018-03-22T02:15:17.074Z,29.2
2018-03-22T02:16:06.955Z,29.3
2018-03-22T02:16:56.044Z,29.4
2018-03-22T02:17:47.866Z,29.4
2018-03-22T02:18:37.214Z,29.5
2018-03-22T02:19:27.891Z,29.6
2018-03-22T02:20:17.922Z,29.6
2018-03-22T02:21:07.191Z,29.7
2018-03-22T02:21:57.519Z,29.8
2018-03-22T02:22:47.699Z,29.8
2018-03-22T02:23:37.949Z,29.8
2018-03-22T02:24:28.414Z,29.9
2018-03-22T02:25:16.721Z,29.9
2018-03-22T02:26:08.584Z,30
2018-03-22T02:26:58.216Z,30.1
2018-03-22T02:27:48.684Z,30.1
2018-03-22T02:28:38.909Z,30.1
2018-03-22T02:29:27.721Z,30.1
2018-03-22T02:30:18.662Z,30.1
2018-03-22T02:31:08.711Z,30.1
2018-03-22T02:31:57.985Z,30.1
2018-03-22T02:32:48.710Z,29.9
2018-03-22T02:33:39.123Z,29.8
2018-03-22T02:34:28.849Z,29.8
2018-03-22T02:35:19.231Z,29.6
2018-03-22T02:36:07.112Z,29.6
2018-03-22T02:36:59.010Z,29.4
2018-03-22T02:37:49.072Z,29.3
2018-03-22T02:38:37.953Z,29.1
2018-03-22T02:39:29.303Z,29
2018-03-22T02:40:19.772Z,28.8
2018-03-22T02:41:08.564Z,28.8
2018-03-22T02:41:59.267Z,28.8
2018-03-22T02:42:48.142Z,28.6
2018-03-22T02:43:38.817Z,28.6
2018-03-22T02:44:29.430Z,28.5
2018-03-22T02:45:19.565Z,28.5
2018-03-22T02:46:10.470Z,28.6
2018-03-22T02:46:59.233Z,28.7
2018-03-22T02:47:49.215Z,28.9
2018-03-22T02:48:39.563Z,29
2018-03-22T02:49:29.706Z,29.1
2018-03-22T02:50:20.528Z,29.2
2018-03-22T02:51:09.633Z,29.3
2018-03-22T02:51:59.949Z,29.3
2018-03-22T02:52:50.031Z,29.4
2018-03-22T02:53:39.569Z,29.4
2018-03-22T02:54:29.549Z,29.6
2018-03-22T02:55:19.927Z,29.6
2018-03-22T02:56:09.893Z,29.6
2018-03-22T02:57:00.538Z,29.7
2018-03-22T02:57:50.175Z,29.8
2018-03-22T02:58:40.865Z,29.8
2018-03-22T02:59:30.041Z,29.8
2018-03-22T03:00:21.473Z,29.9
2018-03-22T03:01:09.834Z,29.9
2018-03-22T03:02:00.998Z,29.9
2018-03-22T03:02:50.651Z,30
2018-03-22T03:03:39.608Z,30
2018-03-22T03:04:29.734Z,30.1
2018-03-22T03:05:19.590Z,30.1
2018-03-22T03:06:10.556Z,30.1
2018-03-22T03:07:00.545Z,30.1
2018-03-22T03:07:51.178Z,30.2
2018-03-22T03:08:41.624Z,30.2
2018-03-22T03:09:30.294Z,30.2
2018-03-22T03:10:20.152Z,30.3
2018-03-22T03:11:10.413Z,30.3
2018-03-22T03:11:59.928Z,30.3
2018-03-22T03:12:51.264Z,30.1
2018-03-22T03:13:41.246Z,29.9
2018-03-22T03:14:31.689Z,29.7
2018-03-22T03:15:20.865Z,29.5
2018-03-22T03:16:12.149Z,29.3
2018-03-22T03:17:00.618Z,29.1
2018-03-22T03:17:51.318Z,29
2018-03-22T03:18:41.196Z,29.1
2018-03-22T03:19:32.395Z,29.3
2018-03-22T03:20:21.023Z,29
2018-03-22T03:21:11.679Z,28.8
2018-03-22T03:22:02.982Z,28.6
2018-03-22T03:22:51.507Z,28.4
2018-03-22T03:23:42.555Z,28.4
2018-03-22T03:24:31.122Z,28.5
2018-03-22T03:25:21.930Z,28.8
2018-03-22T03:26:12.099Z,28.9
2018-03-22T03:27:01.285Z,29.1
2018-03-22T03:27:51.825Z,29.1
2018-03-22T03:28:42.121Z,29.3
2018-03-22T03:29:32.974Z,29.4
2018-03-22T03:30:23.399Z,29.4
2018-03-22T03:31:12.716Z,29.6
2018-03-22T03:32:03.166Z,29.6
2018-03-22T03:32:52.220Z,29.8
2018-03-22T03:33:42.445Z,29.8
2018-03-22T03:34:33.545Z,29.9
2018-03-22T03:35:22.472Z,29.9
2018-03-22T03:36:13.939Z,30
2018-03-22T03:37:02.728Z,30
2018-03-22T03:37:51.582Z,30.1
2018-03-22T03:38:41.346Z,30.1
2018-03-22T03:39:32.220Z,30
2018-03-22T03:40:22.561Z,29.9
2018-03-22T03:41:12.972Z,29.9
2018-03-22T03:42:02.572Z,29.8
2018-03-22T03:42:52.892Z,29.7
2018-03-22T03:43:44.617Z,29.6
2018-03-22T03:44:32.929Z,29.4
2018-03-22T03:45:23.116Z,29.3
2018-03-22T03:46:12.829Z,29.2
2018-03-22T03:47:04.197Z,29.1
2018-03-22T03:47:53.122Z,28.9
2018-03-22T03:48:44.534Z,28.8
2018-03-22T03:49:33.406Z,29
2018-03-22T03:50:23.964Z,28.7
2018-03-22T03:51:13.727Z,28.6
2018-03-22T03:52:03.349Z,28.5
2018-03-22T03:52:54.886Z,28.4
2018-03-22T03:53:43.866Z,28.5
2018-03-22T03:54:34.306Z,28.6
2018-03-22T03:55:23.963Z,28.8
2018-03-22T03:56:13.449Z,28.9
2018-03-22T03:57:04.945Z,29.1
2018-03-22T03:57:53.651Z,29.1
2018-03-22T03:58:43.777Z,29.3
2018-03-22T03:59:35.485Z,29.3
2018-03-22T04:00:24.478Z,29.4
2018-03-22T04:01:14.658Z,29.5
2018-03-22T04:02:03.980Z,29.6
2018-03-22T04:02:54.838Z,29.7
2018-03-22T04:03:44.933Z,29.8
2018-03-22T04:04:35.408Z,29.8
2018-03-22T04:05:25.434Z,29.8
2018-03-22T04:06:14.240Z,29.9
2018-03-22T04:07:03.993Z,29.9
2018-03-22T04:07:54.840Z,30
2018-03-22T04:08:44.786Z,30.1
2018-03-22T04:09:34.953Z,30.1
2018-03-22T04:10:25.895Z,30.1
2018-03-22T04:11:15.971Z,30.2
2018-03-22T04:12:06.662Z,30.1
2018-03-22T04:12:56.277Z,30
2018-03-22T04:13:45.534Z,29.9
2018-03-22T04:14:36.085Z,29.9
2018-03-22T04:15:25.546Z,29.8
2018-03-22T04:16:15.217Z,29.6
2018-03-22T04:17:06.149Z,29.5
2018-03-22T04:17:55.612Z,29.4
2018-03-22T04:18:45.204Z,29.2
2018-03-22T04:19:36.037Z,29.1
2018-03-22T04:20:26.954Z,29.1
2018-03-22T04:21:15.732Z,28.8
2018-03-22T04:22:05.141Z,28.9
2018-03-22T04:22:56.197Z,28.7
2018-03-22T04:23:44.658Z,28.6
2018-03-22T04:24:36.200Z,28.6
2018-03-22T04:25:26.172Z,28.5
2018-03-22T04:26:15.137Z,28.5
2018-03-22T04:27:07.336Z,28.6
2018-03-22T04:27:57.162Z,28.8
2018-03-22T04:28:46.318Z,28.9
2018-03-22T04:29:37.178Z,29
2018-03-22T04:30:26.493Z,29.1
2018-03-22T04:31:17.363Z,29.3
2018-03-22T04:32:06.834Z,29.3
2018-03-22T04:32:56.665Z,29.4
2018-03-22T04:33:46.825Z,29.5
2018-03-22T04:34:38.111Z,29.6
2018-03-22T04:35:27.078Z,29.6
2018-03-22T04:36:16.143Z,29.7
2018-03-22T04:37:06.984Z,29.8
2018-03-22T04:37:57.223Z,29.8
2018-03-22T04:38:47.514Z,29.8
2018-03-22T04:39:37.634Z,29.9
2018-03-22T04:40:27.383Z,29.9
2018-03-22T04:41:17.156Z,30
2018-03-22T04:42:06.815Z,30
2018-03-22T04:42:58.090Z,30.1
2018-03-22T04:43:47.438Z,30.1
2018-03-22T04:44:37.798Z,30.1
2018-03-22T04:45:28.379Z,30.1
2018-03-22T04:46:17.495Z,30.1
2018-03-22T04:47:07.423Z,30
2018-03-22T04:47:57.685Z,29.9
2018-03-22T04:48:48.812Z,29.9
2018-03-22T04:49:37.533Z,29.8
2018-03-22T04:50:27.313Z,29.6
2018-03-22T04:51:18.093Z,29.5
2018-03-22T04:52:07.811Z,29.4
2018-03-22T04:52:58.020Z,29.3
2018-03-22T04:53:49.631Z,29.1
2018-03-22T04:54:40.305Z,29.1
2018-03-22T04:55:29.733Z,28.9
2018-03-22T04:56:20.094Z,28.9
2018-03-22T04:57:09.222Z,28.8
2018-03-22T04:57:59.930Z,28.8
2018-03-22T04:58:49.740Z,28.7
2018-03-22T04:59:40.069Z,28.6
2018-03-22T05:00:29.622Z,28.3
2018-03-22T05:01:20.457Z,28.4
2018-03-22T05:02:08.527Z,28.3
2018-03-22T05:03:00.279Z,28.3
2018-03-22T05:03:50.097Z,28.2
2018-03-22T05:04:40.120Z,28.1
2018-03-22T05:05:30.434Z,28.2
2018-03-22T05:06:21.142Z,28.3
2018-03-22T05:07:10.930Z,28.5
2018-03-22T05:08:01.217Z,28.6
2018-03-22T05:08:50.109Z,28.8
2018-03-22T05:09:41.302Z,28.8
2018-03-22T05:10:31.664Z,29
2018-03-22T05:11:21.166Z,29.1
2018-03-22T05:12:10.692Z,29.1
2018-03-22T05:13:00.671Z,29.3
2018-03-22T05:13:50.617Z,29.3
2018-03-22T05:14:41.699Z,29.4
2018-03-22T05:15:30.989Z,29.4
2018-03-22T05:16:21.222Z,29.5
2018-03-22T05:17:10.774Z,29.6
2018-03-22T05:18:01.308Z,29.6
2018-03-22T05:18:51.884Z,29.7
2018-03-22T05:19:40.854Z,29.7
2018-03-22T05:20:31.524Z,29.8
2018-03-22T05:21:21.836Z,29.8
2018-03-22T05:22:12.178Z,29.8
2018-03-22T05:23:01.375Z,29.9
2018-03-22T05:23:52.604Z,29.9
2018-03-22T05:24:42.132Z,29.9
2018-03-22T05:25:32.186Z,29.9
2018-03-22T05:26:22.443Z,30
2018-03-22T05:27:11.979Z,30.1
2018-03-22T05:28:02.588Z,30.1
2018-03-22T05:28:52.429Z,30.1
2018-03-22T05:29:42.659Z,30.1
2018-03-22T05:30:32.471Z,30.1
2018-03-22T05:31:23.120Z,30.1
2018-03-22T05:32:12.597Z,30.1
2018-03-22T05:33:02.330Z,30
2018-03-22T05:33:52.739Z,29.9
2018-03-22T05:34:42.778Z,29.8
2018-03-22T05:35:33.363Z,29.6
2018-03-22T05:36:23.393Z,29.5
2018-03-22T05:37:13.214Z,29.4
2018-03-22T05:38:03.270Z,29.3
2018-03-22T05:38:53.350Z,29.1
2018-03-22T05:39:43.656Z,29.1
2018-03-22T05:40:33.428Z,29
2018-03-22T05:41:23.430Z,28.9
2018-03-22T05:42:12.113Z,28.8
2018-03-22T05:43:02.108Z,28.8
2018-03-22T05:43:52.481Z,28.7
2018-03-22T05:44:42.203Z,28.6
2018-03-22T05:45:30.301Z,28.4
2018-03-22T05:46:21.913Z,28.4
2018-03-22T05:47:11.725Z,28.3
2018-03-22T05:48:02.825Z,28.2
2018-03-22T05:48:52.683Z,28.2
2018-03-22T05:49:42.998Z,28.1
2018-03-22T05:50:33.003Z,28.1
2018-03-22T05:51:21.148Z,28.2
2018-03-22T05:52:12.428Z,28.3
2018-03-22T05:53:02.527Z,28.5
2018-03-22T05:53:53.055Z,28.6
2018-03-22T05:54:42.550Z,28.8
2018-03-22T05:55:32.883Z,28.8
2018-03-22T05:56:22.205Z,28.9
2018-03-22T05:57:12.906Z,29
2018-03-22T05:58:03.010Z,29.1
2018-03-22T05:58:53.150Z,29.1
2018-03-22T05:59:43.195Z,29.2
2018-03-22T06:00:33.436Z,29.3
2018-03-22T06:01:23.925Z,29.3
2018-03-22T06:02:13.387Z,29.3
2018-03-22T06:03:03.544Z,29.4
2018-03-22T06:03:53.313Z,29.4
2018-03-22T06:04:43.524Z,29.4
2018-03-22T06:05:32.738Z,29.5
2018-03-22T06:06:22.775Z,29.5
2018-03-22T06:07:12.918Z,29.6
2018-03-22T06:08:03.525Z,29.6
2018-03-22T06:08:54.226Z,29.6
2018-03-22T06:09:43.985Z,29.6
2018-03-22T06:10:33.848Z,29.4
2018-03-22T06:11:24.802Z,29.3
2018-03-22T06:12:13.472Z,29.1
2018-03-22T06:13:03.592Z,28.9
2018-03-22T06:13:53.141Z,28.7
2018-03-22T06:14:44.927Z,28.6
2018-03-22T06:15:31.473Z,28.5
2018-03-22T06:16:25.172Z,28.8
2018-03-22T06:17:13.179Z,28.8
2018-03-22T06:18:04.564Z,28.6
2018-03-22T06:18:54.557Z,28.4
2018-03-22T06:19:43.219Z,28.1
2018-03-22T06:20:34.151Z,27.9
2018-03-22T06:21:23.833Z,28.1
2018-03-22T06:22:14.377Z,28.2
2018-03-22T06:23:04.124Z,28.4
2018-03-22T06:23:54.178Z,28.6
2018-03-22T06:24:43.279Z,28.7
2018-03-22T06:25:33.831Z,28.8
2018-03-22T06:26:24.398Z,28.9
2018-03-22T06:27:13.521Z,29.1
2018-03-22T06:28:05.640Z,29.1
2018-03-22T06:28:55.683Z,29.3
2018-03-22T06:29:45.010Z,29.3
2018-03-22T06:30:33.781Z,29.3
2018-03-22T06:31:24.774Z,29.4
2018-03-22T06:32:15.531Z,29.5
2018-03-22T06:33:05.223Z,29.6
2018-03-22T06:33:53.398Z,29.6
2018-03-22T06:34:45.685Z,29.7
2018-03-22T06:35:35.326Z,29.8
2018-03-22T06:36:25.281Z,29.8
2018-03-22T06:37:16.413Z,29.9
2018-03-22T06:38:05.626Z,29.9
2018-03-22T06:38:55.612Z,29.9
2018-03-22T06:39:45.973Z,29.9
2018-03-22T06:40:34.497Z,29.8
2018-03-22T06:41:25.233Z,29.8
2018-03-22T06:42:14.665Z,29.7
2018-03-22T06:43:04.510Z,29.6
2018-03-22T06:43:55.234Z,29.4
2018-03-22T06:44:45.848Z,29.3
2018-03-22T06:45:36.065Z,29.2
2018-03-22T06:46:25.583Z,29.1
2018-03-22T06:47:16.380Z,28.9
2018-03-22T06:48:05.905Z,28.8
2018-03-22T06:48:55.707Z,28.7
2018-03-22T06:49:46.902Z,28.6
2018-03-22T06:50:36.114Z,28.4
2018-03-22T06:51:25.916Z,28.3
2018-03-22T06:52:16.750Z,28.3
2018-03-22T06:53:07.695Z,28.1
2018-03-22T06:53:56.160Z,28.3
2018-03-22T06:54:46.769Z,28.1
2018-03-22T06:55:35.922Z,28.1
2018-03-22T06:56:25.507Z,28.1
2018-03-22T06:57:15.126Z,28
2018-03-22T06:58:08.022Z,28.1
2018-03-22T06:58:56.617Z,28.3
2018-03-22T06:59:46.561Z,28.4
2018-03-22T07:00:37.524Z,28.6
2018-03-22T07:01:27.582Z,28.7
2018-03-22T07:02:16.801Z,28.8
2018-03-22T07:03:08.079Z,28.9
2018-03-22T07:03:58.564Z,29
2018-03-22T07:04:48.361Z,29.1
2018-03-22T07:05:37.563Z,29.2
2018-03-22T07:06:27.251Z,29.3
2018-03-22T07:07:16.100Z,29.3
2018-03-22T07:08:07.744Z,29.4
2018-03-22T07:08:56.697Z,29.5
2018-03-22T07:09:48.045Z,29.6
2018-03-22T07:10:38.246Z,29.6
2018-03-22T07:11:27.395Z,29.6
2018-03-22T07:12:18.257Z,29.7
2018-03-22T07:13:07.509Z,29.8
2018-03-22T07:13:57.677Z,29.8
2018-03-22T07:14:47.603Z,29.8
2018-03-22T07:15:37.238Z,29.9
2018-03-22T07:16:28.317Z,29.9
2018-03-22T07:17:18.889Z,30
2018-03-22T07:18:08.375Z,30
2018-03-22T07:18:57.731Z,30
2018-03-22T07:19:48.901Z,30
2018-03-22T07:20:37.928Z,29.9
2018-03-22T07:21:29.415Z,29.8
2018-03-22T07:22:18.530Z,29.7
2018-03-22T07:23:08.048Z,29.6
2018-03-22T07:23:58.623Z,29.4
2018-03-22T07:24:48.604Z,29.3
2018-03-22T07:25:36.883Z,29.3
2018-03-22T07:26:28.872Z,29.1
2018-03-22T07:27:19.643Z,29
2018-03-22T07:28:08.621Z,28.9
2018-03-22T07:28:59.290Z,28.8
2018-03-22T07:29:49.548Z,28.6
2018-03-22T07:30:39.077Z,28.5
2018-03-22T07:31:29.618Z,28.4
2018-03-22T07:32:19.810Z,28.3
2018-03-22T07:33:09.006Z,28.1
2018-03-22T07:34:00.032Z,28.1
2018-03-22T07:34:49.943Z,28.1
2018-03-22T07:35:41.718Z,28
2018-03-22T07:36:31.190Z,28
2018-03-22T07:37:20.977Z,28
2018-03-22T07:38:11.192Z,27.9
2018-03-22T07:39:01.111Z,28
2018-03-22T07:39:51.185Z,28.2
2018-03-22T07:40:40.034Z,28.4
2018-03-22T07:41:29.616Z,28.5
2018-03-22T07:42:20.415Z,28.6
2018-03-22T07:43:09.567Z,28.8
2018-03-22T07:43:59.846Z,28.8
2018-03-22T07:44:50.029Z,28.9
2018-03-22T07:45:39.850Z,29
2018-03-22T07:46:29.933Z,29.1
2018-03-22T07:47:20.545Z,29.1
2018-03-22T07:48:10.654Z,29.2
2018-03-22T07:49:01.144Z,29.3
2018-03-22T07:49:51.232Z,29.3
2018-03-22T07:50:38.907Z,29.4
2018-03-22T07:51:30.550Z,29.4
2018-03-22T07:52:19.610Z,29.4
2018-03-22T07:53:12.438Z,29.5
2018-03-22T07:54:01.893Z,29.6
2018-03-22T07:54:52.084Z,29.6
2018-03-22T07:55:40.796Z,29.6
2018-03-22T07:56:30.099Z,29.7
2018-03-22T07:57:22.139Z,29.7
2018-03-22T07:58:11.471Z,29.7
2018-03-22T07:59:01.403Z,29.8
2018-03-22T07:59:51.842Z,29.8
2018-03-22T08:00:40.644Z,29.8
2018-03-22T08:01:29.188Z,29.8
2018-03-22T08:02:20.659Z,29.9
2018-03-22T08:03:11.942Z,29.9
2018-03-22T08:04:01.382Z,29.9
2018-03-22T08:04:51.282Z,29.9
2018-03-22T08:05:41.234Z,29.9
2018-03-22T08:06:31.409Z,29.9
2018-03-22T08:07:21.252Z,29.9
2018-03-22T08:08:12.602Z,29.9
2018-03-22T08:09:01.542Z,30
2018-03-22T08:09:52.804Z,30
2018-03-22T08:10:41.665Z,30
2018-03-22T08:11:31.954Z,30
2018-03-22T08:12:21.830Z,30
2018-03-22T08:13:11.757Z,30
2018-03-22T08:14:01.235Z,30.1
2018-03-22T08:14:52.307Z,30
2018-03-22T08:15:42.046Z,30
2018-03-22T08:16:32.109Z,30.1
2018-03-22T08:17:22.470Z,30.1
2018-03-22T08:18:13.073Z,30.1
2018-03-22T08:19:02.227Z,30.1
2018-03-22T08:19:51.194Z,30.1
2018-03-22T08:20:43.439Z,30.1
2018-03-22T08:21:32.495Z,30
2018-03-22T08:22:22.105Z,30.1
2018-03-22T08:23:11.972Z,30.1
2018-03-22T08:24:02.095Z,30.1
2018-03-22T08:24:52.812Z,30.1
2018-03-22T08:25:42.048Z,30.1
2018-03-22T08:26:33.688Z,30.1
2018-03-22T08:27:22.804Z,30.1
2018-03-22T08:28:12.763Z,30.1
2018-03-22T08:29:03.631Z,30.1
2018-03-22T08:29:53.658Z,30.1
2018-03-22T08:30:42.066Z,30.1
2018-03-22T08:31:32.827Z,30.1
2018-03-22T08:32:23.821Z,30.1
2018-03-22T08:33:12.935Z,30.1
2018-03-22T08:34:03.631Z,30.1
2018-03-22T08:34:54.762Z,30.1
2018-03-22T08:35:43.622Z,30.1
2018-03-22T08:36:34.378Z,30
2018-03-22T08:37:23.485Z,30
2018-03-22T08:38:14.154Z,29.9
2018-03-22T08:39:03.602Z,29.5
2018-03-22T08:39:53.910Z,29.3
2018-03-22T08:40:44.130Z,29
2018-03-22T08:41:34.722Z,28.8
2018-03-22T08:42:25.092Z,28.6
2018-03-22T08:43:15.877Z,28.5
2018-03-22T08:44:03.645Z,28.6
2018-03-22T08:44:54.352Z,28.9
2018-03-22T08:45:44.152Z,28.8
2018-03-22T08:46:35.399Z,28.6
2018-03-22T08:47:24.214Z,28.4
2018-03-22T08:48:14.448Z,28.1
2018-03-22T08:49:04.312Z,28.1
2018-03-22T08:49:54.637Z,28.3
2018-03-22T08:50:44.857Z,28.4
2018-03-22T08:51:34.969Z,28.6
2018-03-22T08:52:24.649Z,28.8
2018-03-22T08:53:13.426Z,28.9
2018-03-22T08:54:05.857Z,29.1
2018-03-22T08:54:57.427Z,29.2
2018-03-22T08:55:45.880Z,29.3
2018-03-22T08:56:36.982Z,29.4
2018-03-22T08:57:26.585Z,29.4
2018-03-22T08:58:16.418Z,29.6
2018-03-22T08:59:05.912Z,29.6
2018-03-22T08:59:54.529Z,29.7
2018-03-22T09:00:45.719Z,29.8
2018-03-22T09:01:34.873Z,29.8
2018-03-22T09:02:25.671Z,29.9
2018-03-22T09:03:16.232Z,29.9
2018-03-22T09:04:05.706Z,30
2018-03-22T09:04:56.267Z,30
2018-03-22T09:05:46.160Z,29.9
2018-03-22T09:06:35.483Z,29.8
2018-03-22T09:07:25.476Z,29.8
2018-03-22T09:08:15.629Z,29.6
2018-03-22T09:09:06.776Z,29.5
2018-03-22T09:09:55.909Z,29.4
2018-03-22T09:10:46.244Z,29.3
2018-03-22T09:11:36.486Z,29.1
2018-03-22T09:12:24.252Z,29
2018-03-22T09:13:15.843Z,28.9
2018-03-22T09:14:06.721Z,28.8
2018-03-22T09:14:56.070Z,28.6
2018-03-22T09:15:46.302Z,28.5
2018-03-22T09:16:36.308Z,28.4
2018-03-22T09:17:26.517Z,28.3
2018-03-22T09:18:16.793Z,28.2
2018-03-22T09:19:06.885Z,28.1
2018-03-22T09:19:57.230Z,28.3
2018-03-22T09:20:46.757Z,28.1
2018-03-22T09:21:36.565Z,28.1
2018-03-22T09:22:26.802Z,28.1
2018-03-22T09:23:16.703Z,28.1
2018-03-22T09:24:06.716Z,28.1
2018-03-22T09:24:56.835Z,28.2
2018-03-22T09:25:46.568Z,28.4
2018-03-22T09:26:36.318Z,28.6
2018-03-22T09:27:27.374Z,28.8
2018-03-22T09:28:17.237Z,28.9
2018-03-22T09:29:08.552Z,29
2018-03-22T09:29:57.609Z,29.1
2018-03-22T09:30:47.903Z,29.2
2018-03-22T09:31:37.460Z,29.3
2018-03-22T09:32:27.767Z,29.4
2018-03-22T09:33:18.183Z,29.4
2018-03-22T09:34:07.779Z,29.5
2018-03-22T09:34:58.639Z,29.6
2018-03-22T09:35:47.907Z,29.6
2018-03-22T09:36:37.522Z,29.7
2018-03-22T09:37:26.765Z,29.8
2018-03-22T09:38:19.645Z,29.8
2018-03-22T09:39:08.906Z,29.9
2018-03-22T09:39:58.122Z,29.9
2018-03-22T09:40:47.877Z,30
2018-03-22T09:41:38.228Z,30
2018-03-22T09:42:27.745Z,30
2018-03-22T09:43:17.533Z,29.9
2018-03-22T09:44:08.342Z,29.8
2018-03-22T09:44:58.274Z,29.8
2018-03-22T09:45:48.244Z,29.7
2018-03-22T09:46:37.846Z,29.5
2018-03-22T09:47:28.035Z,29.4
2018-03-22T09:48:19.142Z,29.3
2018-03-22T09:49:09.112Z,29.2
2018-03-22T09:49:59.692Z,29
2018-03-22T09:50:48.562Z,28.9
2018-03-22T09:51:38.009Z,28.8
2018-03-22T09:52:28.948Z,28.6
2018-03-22T09:53:18.834Z,28.6
2018-03-22T09:54:08.169Z,28.4
2018-03-22T09:54:59.081Z,28.3
2018-03-22T09:55:49.951Z,28.3
2018-03-22T09:56:39.068Z,28.1
2018-03-22T09:57:31.261Z,28.2
2018-03-22T09:58:20.121Z,28.1
2018-03-22T09:59:11.660Z,28.1
2018-03-22T10:00:01.118Z,28.1
2018-03-22T10:00:50.970Z,28.1
2018-03-22T10:01:41.810Z,28.2
2018-03-22T10:02:31.038Z,28.3
2018-03-22T10:03:21.312Z,28.5
2018-03-22T10:04:11.113Z,28.7
2018-03-22T10:05:00.377Z,28.8
2018-03-22T10:05:50.783Z,28.9
2018-03-22T10:06:41.858Z,29
2018-03-22T10:07:31.947Z,29.1
2018-03-22T10:08:21.931Z,29.2
2018-03-22T10:09:10.972Z,29.3
2018-03-22T10:10:00.477Z,29.4
2018-03-22T10:10:50.793Z,29.4
2018-03-22T10:11:41.945Z,29.5
2018-03-22T10:12:32.003Z,29.6
2018-03-22T10:13:21.818Z,29.6
2018-03-22T10:14:10.997Z,29.7
2018-03-22T10:15:01.105Z,29.8
2018-03-22T10:15:51.985Z,29.8
2018-03-22T10:16:42.015Z,29.9
2018-03-22T10:17:31.427Z,29.9
2018-03-22T10:18:22.754Z,29.9
2018-03-22T10:19:12.280Z,29.9
2018-03-22T10:20:02.291Z,30
2018-03-22T10:20:52.246Z,30
2018-03-22T10:21:41.948Z,30
2018-03-22T10:22:32.749Z,29.9
2018-03-22T10:23:22.195Z,29.8
2018-03-22T10:24:11.703Z,29.8
2018-03-22T10:25:01.980Z,29.7
2018-03-22T10:25:52.202Z,29.6
2018-03-22T10:26:42.905Z,29.4
2018-03-22T10:27:33.064Z,29.3
2018-03-22T10:28:22.509Z,29.2
2018-03-22T10:29:12.261Z,29.1
2018-03-22T10:30:03.290Z,28.9
2018-03-22T10:30:53.046Z,28.8
2018-03-22T10:31:42.786Z,28.7
2018-03-22T10:32:33.005Z,28.6
2018-03-22T10:33:22.452Z,28.5
2018-03-22T10:34:12.044Z,28.3
2018-03-22T10:35:02.432Z,28.3
2018-03-22T10:35:51.556Z,28.1
2018-03-22T10:36:40.610Z,28.3
2018-03-22T10:37:32.204Z,28.1
2018-03-22T10:38:23.364Z,28.1
2018-03-22T10:39:12.284Z,28.1
2018-03-22T10:40:01.159Z,28.1
2018-03-22T10:40:52.129Z,28.1
2018-03-22T10:41:43.098Z,28.3
2018-03-22T10:42:32.363Z,28.4
2018-03-22T10:43:24.090Z,28.6
2018-03-22T10:44:11.829Z,28.7
2018-03-22T10:45:02.755Z,28.8
2018-03-22T10:45:52.716Z,28.9
2018-03-22T10:46:42.668Z,29
2018-03-22T10:47:31.974Z,29.1
2018-03-22T10:48:24.401Z,29.2
2018-03-22T10:49:12.580Z,29.3
2018-03-22T10:50:02.280Z,29.3
2018-03-22T10:50:52.223Z,29.4
2018-03-22T10:51:42.981Z,29.4
2018-03-22T10:52:33.760Z,29.5
2018-03-22T10:53:23.333Z,29.6
2018-03-22T10:54:13.280Z,29.6
2018-03-22T10:55:03.106Z,29.7
2018-03-22T10:55:54.315Z,29.8
2018-03-22T10:56:43.224Z,29.8
2018-03-22T10:57:32.746Z,29.8
2018-03-22T10:58:23.022Z,29.9
2018-03-22T10:59:14.324Z,29.9
2018-03-22T11:00:02.815Z,30
2018-03-22T11:00:53.950Z,30
2018-03-22T11:01:42.960Z,30
2018-03-22T11:02:33.040Z,30.1
2018-03-22T11:03:24.758Z,30.1
2018-03-22T11:04:15.012Z,30.1
2018-03-22T11:05:03.053Z,30.1
2018-03-22T11:05:54.010Z,30.1
2018-03-22T11:06:44.585Z,30.1
2018-03-22T11:07:34.137Z,30
2018-03-22T11:08:24.614Z,29.9
2018-03-22T11:09:13.249Z,29.8
2018-03-22T11:10:04.352Z,29.7